createdAt,value
2018-09-29T00:02:01.421Z,26.89
2018-09-29T00:04:27.833Z,26.90
2018-09-29T00:06:54.190Z,27.06
2018-09-29T00:09:20.650Z,26.99
2018-09-29T00:11:46.989Z,27.04
2018-09-29T00:14:13.495Z,27.08
2018-09-29T00:16:39.895Z,27.21
2018-09-29T00:19:06.275Z,27.13
2018-09-29T00:21:33.173Z,27.27
2018-09-29T00:23:59.501Z,27.34
2018-09-29T00:26:25.851Z,27.37
2018-09-29T00:28:52.221Z,27.37
2018-09-29T00:31:18.572Z,27.41
2018-09-29T00:33:44.961Z,27.42
2018-09-29T00:36:11.360Z,27.41
2018-09-29T00:38:37.786Z,27.58
2018-09-29T00:41:04.133Z,27.55
2018-09-29T00:43:30.480Z,27.60
2018-09-29T00:45:56.884Z,27.70
2018-09-29T00:48:23.269Z,27.67
2018-09-29T00:50:49.605Z,27.84
2018-09-29T00:53:16.000Z,27.78
2018-09-29T00:55:42.434Z,27.94
2018-09-29T00:58:08.783Z,28.04
2018-09-29T01:00:35.114Z,28.11
2018-09-29T01:03:01.437Z,28.18
2018-09-29T01:05:27.765Z,28.24
2018-09-29T01:07:54.110Z,28.26
2018-09-29T01:10:20.455Z,28.35
2018-09-29T01:12:46.829Z,28.40
2018-09-29T01:15:13.155Z,28.41
2018-09-29T01:17:39.479Z,28.42
2018-09-29T01:20:05.809Z,28.52
2018-09-29T01:22:32.145Z,28.62
2018-09-29T01:24:58.576Z,28.68
2018-09-29T01:27:24.975Z,28.71
2018-09-29T01:29:51.472Z,28.60
2018-09-29T01:32:17.816Z,28.74
2018-09-29T01:34:44.139Z,28.79
2018-09-29T01:37:10.483Z,28.76
2018-09-29T01:39:36.837Z,28.92
2018-09-29T01:42:03.185Z,28.92
2018-09-29T01:44:29.525Z,28.94
2018-09-29T01:46:55.875Z,29.10
2018-09-29T01:49:22.200Z,29.05
2018-09-29T01:51:48.552Z,29.13
2018-09-29T01:54:14.884Z,29.18
2018-09-29T01:56:41.208Z,29.34
2018-09-29T01:59:07.604Z,29.36
2018-09-29T02:01:33.973Z,29.40
2018-09-29T02:04:00.344Z,29.47
2018-09-29T02:06:26.738Z,29.45
2018-09-29T02:08:53.087Z,29.54
2018-09-29T02:11:19.440Z,29.53
2018-09-29T02:13:45.830Z,29.53
2018-09-29T02:16:12.169Z,29.67
2018-09-29T02:18:38.512Z,29.73
2018-09-29T02:21:04.837Z,29.83
2018-09-29T02:23:31.179Z,29.88
2018-09-29T02:25:57.570Z,29.89
2018-09-29T02:28:23.903Z,30.08
2018-09-29T02:30:50.278Z,30.09
2018-09-29T02:33:16.613Z,30.16
2018-09-29T02:35:43.009Z,30.16
2018-09-29T02:38:09.384Z,30.25
2018-09-29T02:40:35.768Z,30.37
2018-09-29T02:43:02.200Z,30.34
2018-09-29T02:45:28.537Z,30.35
2018-09-29T02:47:54.967Z,30.43
2018-09-29T02:50:21.341Z,30.45
2018-09-29T02:52:47.729Z,30.51
2018-09-29T02:55:14.099Z,30.51
2018-09-29T02:57:40.482Z,30.46
2018-09-29T03:00:06.988Z,30.45
2018-09-29T03:02:33.361Z,30.51
2018-09-29T03:04:59.905Z,30.47
2018-09-29T03:07:26.295Z,30.57
2018-09-29T03:09:52.676Z,30.56
2018-09-29T03:12:19.053Z,30.56
2018-09-29T03:14:45.454Z,30.46
2018-09-29T03:17:11.814Z,30.64
2018-09-29T03:19:38.211Z,30.59
2018-09-29T03:22:04.593Z,30.59
2018-09-29T03:24:31.003Z,30.73
2018-09-29T03:26:57.386Z,30.60
2018-09-29T03:29:23.728Z,30.73
2018-09-29T03:31:50.223Z,30.59
2018-09-29T03:34:16.464Z,30.63
2018-09-29T03:36:42.836Z,30.54
2018-09-29T03:39:09.194Z,30.58
2018-09-29T03:41:35.536Z,30.60
2018-09-29T03:44:01.929Z,30.50
2018-09-29T03:46:28.261Z,30.51
2018-09-29T03:48:54.663Z,30.53
2018-09-29T03:51:20.994Z,30.56
2018-09-29T03:53:47.367Z,30.49
2018-09-29T03:56:13.742Z,30.46
2018-09-29T03:58:40.128Z,30.47
2018-09-29T04:01:06.473Z,30.52
2018-09-29T04:03:32.855Z,30.47
2018-09-29T04:05:59.272Z,30.53
2018-09-29T04:08:25.609Z,30.55
2018-09-29T04:10:51.976Z,30.66
2018-09-29T04:13:18.368Z,30.73
2018-09-29T04:15:44.701Z,30.69
2018-09-29T04:18:11.160Z,30.71
2018-09-29T04:20:37.499Z,30.69
2018-09-29T04:23:03.883Z,30.71
2018-09-29T04:25:30.213Z,30.78
2018-09-29T04:27:56.572Z,30.70
2018-09-29T04:30:22.979Z,30.81
2018-09-29T04:32:49.333Z,30.82
2018-09-29T04:35:15.731Z,30.93
2018-09-29T04:37:42.130Z,30.92
2018-09-29T04:40:08.521Z,30.96
2018-09-29T04:42:34.918Z,30.91
2018-09-29T04:45:01.298Z,31.06
2018-09-29T04:47:27.713Z,31.15
2018-09-29T04:49:54.109Z,31.15
2018-09-29T04:52:20.500Z,31.11
2018-09-29T04:54:46.865Z,31.09
2018-09-29T04:57:13.239Z,31.15
2018-09-29T04:59:39.648Z,31.08
2018-09-29T05:02:06.047Z,31.01
2018-09-29T05:04:32.451Z,31.01
2018-09-29T05:06:58.783Z,31.09
2018-09-29T05:09:25.181Z,31.09
2018-09-29T05:11:51.581Z,31.22
2018-09-29T05:14:17.951Z,31.25
2018-09-29T05:16:44.344Z,31.16
2018-09-29T05:19:10.674Z,31.16
2018-09-29T05:21:37.009Z,31.26
2018-09-29T05:24:03.410Z,31.20
2018-09-29T05:26:29.821Z,31.34
2018-09-29T05:28:56.174Z,31.27
2018-09-29T05:31:22.527Z,31.18
2018-09-29T05:33:48.917Z,31.10
2018-09-29T05:36:15.326Z,31.15
2018-09-29T05:38:41.712Z,31.05
2018-09-29T05:41:08.088Z,31.15
2018-09-29T05:43:34.584Z,31.06
2018-09-29T05:46:00.921Z,30.99
2018-09-29T05:48:27.251Z,30.87
2018-09-29T05:50:53.726Z,30.78
2018-09-29T05:53:20.100Z,30.77
2018-09-29T05:55:46.432Z,30.62
2018-09-29T05:58:12.889Z,30.59
2018-09-29T06:00:39.364Z,30.67
2018-09-29T06:03:05.640Z,30.54
2018-09-29T06:05:32.098Z,30.52
2018-09-29T06:07:58.415Z,30.41
2018-09-29T06:10:24.778Z,30.36
2018-09-29T06:12:51.124Z,30.32
2018-09-29T06:15:17.507Z,30.33
2018-09-29T06:17:43.916Z,30.28
2018-09-29T06:20:10.271Z,30.31
2018-09-29T06:22:36.700Z,30.38
2018-09-29T06:25:03.056Z,30.09
2018-09-29T06:27:29.424Z,30.12
2018-09-29T06:29:55.781Z,30.08
2018-09-29T06:32:22.201Z,30.10
2018-09-29T06:34:48.593Z,30.01
2018-09-29T06:37:14.968Z,30.01
2018-09-29T06:39:41.319Z,30.04
2018-09-29T06:42:07.701Z,30.09
2018-09-29T06:44:34.102Z,30.05
2018-09-29T06:47:00.503Z,30.03
2018-09-29T06:49:26.836Z,29.99
2018-09-29T06:51:53.264Z,30.04
2018-09-29T06:54:19.736Z,30.03
2018-09-29T06:56:46.100Z,30.02
2018-09-29T06:59:12.508Z,30.02
2018-09-29T07:01:38.839Z,29.95
2018-09-29T07:04:05.157Z,30.02
2018-09-29T07:06:31.576Z,29.89
2018-09-29T07:08:57.917Z,29.93
2018-09-29T07:11:24.328Z,29.91
2018-09-29T07:13:50.660Z,29.84
2018-09-29T07:16:17.023Z,29.83
2018-09-29T07:18:43.424Z,29.81
2018-09-29T07:21:09.752Z,29.83
2018-09-29T07:23:36.137Z,29.71
2018-09-29T07:26:02.477Z,29.68
2018-09-29T07:28:28.825Z,29.66
2018-09-29T07:30:55.245Z,29.59
2018-09-29T07:33:21.608Z,29.58
2018-09-29T07:35:47.972Z,29.63
2018-09-29T07:38:14.399Z,29.64
2018-09-29T07:40:40.868Z,29.59
2018-09-29T07:43:07.208Z,29.58
2018-09-29T07:45:33.572Z,29.46
2018-09-29T07:47:59.949Z,29.43
2018-09-29T07:50:26.322Z,29.42
2018-09-29T07:52:52.649Z,29.37
2018-09-29T07:55:19.023Z,29.37
2018-09-29T07:57:45.452Z,29.29
2018-09-29T08:00:11.882Z,29.37
2018-09-29T08:02:38.310Z,29.29
2018-09-29T08:05:04.664Z,29.34
2018-09-29T08:07:31.015Z,29.25
2018-09-29T08:09:57.422Z,29.24
2018-09-29T08:12:23.784Z,29.19
2018-09-29T08:14:50.158Z,29.14
2018-09-29T08:17:16.544Z,29.20
2018-09-29T08:19:42.940Z,29.08
2018-09-29T08:22:09.333Z,29.04
2018-09-29T08:24:35.794Z,29.04
2018-09-29T08:27:02.226Z,28.99
2018-09-29T08:29:28.580Z,29.01
2018-09-29T08:31:54.947Z,28.97
2018-09-29T08:34:21.344Z,28.92
2018-09-29T08:36:47.735Z,28.96
2018-09-29T08:39:14.154Z,28.95
2018-09-29T08:41:40.520Z,28.89
2018-09-29T08:44:06.873Z,28.91
2018-09-29T08:46:33.225Z,28.84
2018-09-29T08:48:59.714Z,28.78
2018-09-29T08:51:26.068Z,28.82
2018-09-29T08:53:52.423Z,28.76
2018-09-29T08:56:18.774Z,28.72
2018-09-29T08:58:45.173Z,28.76
2018-09-29T09:01:11.592Z,28.67
2018-09-29T09:03:37.955Z,28.61
2018-09-29T09:06:04.321Z,28.66
2018-09-29T09:08:30.724Z,28.67
2018-09-29T09:10:57.096Z,28.53
2018-09-29T09:13:23.424Z,28.59
2018-09-29T09:15:49.855Z,28.48
2018-09-29T09:18:16.252Z,28.50
2018-09-29T09:20:42.648Z,28.47
2018-09-29T09:23:09.105Z,28.50
2018-09-29T09:25:35.449Z,28.47
2018-09-29T09:28:01.943Z,28.39
2018-09-29T09:30:28.376Z,28.34
2018-09-29T09:32:54.813Z,28.38
2018-09-29T09:35:21.214Z,28.39
2018-09-29T09:37:47.540Z,28.30
2018-09-29T09:40:13.914Z,28.30
2018-09-29T09:42:40.300Z,28.32
2018-09-29T09:45:06.634Z,28.28
2018-09-29T09:47:33.033Z,28.21
2018-09-29T09:49:59.381Z,28.23
2018-09-29T09:52:25.797Z,28.20
2018-09-29T09:54:52.129Z,28.20
2018-09-29T09:57:18.485Z,28.09
2018-09-29T09:59:44.819Z,28.13
2018-09-29T10:02:11.184Z,28.13
2018-09-29T10:04:37.516Z,28.09
2018-09-29T10:07:03.881Z,28.06
2018-09-29T10:09:30.245Z,28.12
2018-09-29T10:11:56.713Z,28.08
2018-09-29T10:14:23.167Z,28.02
2018-09-29T10:16:49.509Z,27.95
2018-09-29T10:19:15.905Z,27.91
2018-09-29T10:21:42.246Z,27.86
2018-09-29T10:24:08.640Z,27.83
2018-09-29T10:26:35.046Z,27.70
2018-09-29T10:29:01.428Z,27.79
2018-09-29T10:31:27.882Z,27.65
2018-09-29T10:33:54.234Z,27.58
2018-09-29T10:36:20.648Z,27.63
2018-09-29T10:38:46.995Z,27.51
2018-09-29T10:41:13.427Z,27.53
2018-09-29T10:43:40.138Z,27.33
2018-09-29T10:46:06.544Z,27.37
2018-09-29T10:48:32.901Z,27.43
2018-09-29T10:50:59.313Z,27.26
2018-09-29T10:53:25.664Z,27.17
2018-09-29T10:55:52.001Z,27.19
2018-09-29T10:58:18.549Z,27.13
2018-09-29T11:00:44.917Z,27.13
2018-09-29T11:03:11.267Z,27.17
2018-09-29T11:05:37.629Z,27.17
2018-09-29T11:08:03.959Z,27.17
2018-09-29T11:10:30.495Z,27.11
2018-09-29T11:12:56.957Z,27.11
2018-09-29T11:15:23.349Z,27.09
2018-09-29T11:17:49.749Z,27.16
2018-09-29T11:20:16.101Z,26.97
2018-09-29T11:22:42.617Z,26.98
2018-09-29T11:25:08.957Z,27.08
2018-09-29T11:27:35.340Z,26.90
2018-09-29T11:30:01.921Z,26.97
2018-09-29T11:32:28.250Z,26.79
2018-09-29T11:34:54.583Z,27.01
2018-09-29T11:37:20.998Z,26.83
2018-09-29T11:39:47.416Z,26.82
2018-09-29T11:42:13.816Z,26.76
2018-09-29T11:44:40.204Z,26.71
2018-09-29T11:47:06.637Z,26.76
2018-09-29T11:49:33.009Z,26.61
2018-09-29T11:51:59.424Z,26.85
2018-09-29T11:54:25.748Z,26.72
2018-09-29T11:56:52.096Z,26.74
2018-09-29T11:59:18.428Z,26.68
2018-09-29T12:01:44.844Z,26.62
2018-09-29T12:04:11.204Z,26.65
2018-09-29T12:06:37.605Z,26.54
2018-09-29T12:09:03.948Z,26.47
2018-09-29T12:11:30.328Z,26.52
2018-09-29T12:13:57.001Z,26.51
2018-09-29T12:16:23.322Z,26.52
2018-09-29T12:18:49.665Z,26.46
2018-09-29T12:21:16.010Z,26.41
2018-09-29T12:23:42.377Z,26.55
2018-09-29T12:26:08.714Z,26.54
2018-09-29T12:28:35.139Z,26.46
2018-09-29T12:31:01.493Z,26.42
2018-09-29T12:33:27.864Z,26.40
2018-09-29T12:35:54.217Z,26.35
2018-09-29T12:38:20.634Z,26.32
2018-09-29T12:40:47.023Z,26.20
2018-09-29T12:43:13.381Z,26.25
2018-09-29T12:45:39.803Z,26.26
2018-09-29T12:48:06.161Z,26.27
2018-09-29T12:50:32.549Z,26.21
2018-09-29T12:52:58.895Z,26.11
2018-09-29T12:55:25.288Z,26.21
2018-09-29T12:57:51.637Z,26.12
2018-09-29T13:00:18.050Z,26.08
2018-09-29T13:02:44.405Z,26.05
2018-09-29T13:05:10.865Z,26.08
2018-09-29T13:07:37.178Z,26.21
2018-09-29T13:10:03.518Z,26.20
2018-09-29T13:12:29.896Z,26.11
2018-09-29T13:14:56.390Z,26.05
2018-09-29T13:17:22.713Z,26.06
2018-09-29T13:19:49.081Z,26.09
2018-09-29T13:22:15.540Z,26.00
2018-09-29T13:24:42.089Z,26.02
2018-09-29T13:27:08.465Z,26.04
2018-09-29T13:29:34.837Z,26.00
2018-09-29T13:32:01.332Z,25.99
2018-09-29T13:34:27.716Z,25.92
2018-09-29T13:36:54.107Z,25.85
2018-09-29T13:39:20.455Z,25.87
2018-09-29T13:41:46.784Z,25.92
2018-09-29T13:44:13.163Z,25.88
2018-09-29T13:46:39.506Z,25.84
2018-09-29T13:49:05.911Z,25.75
2018-09-29T13:51:32.256Z,25.75
2018-09-29T13:53:58.650Z,25.75
2018-09-29T13:56:25.003Z,25.79
2018-09-29T13:58:51.340Z,25.78
2018-09-29T14:01:17.664Z,25.80
2018-09-29T14:03:44.082Z,25.78
2018-09-29T14:06:10.426Z,25.79
2018-09-29T14:08:36.857Z,25.74
2018-09-29T14:11:03.132Z,25.75
2018-09-29T14:13:29.460Z,25.72
2018-09-29T14:15:55.902Z,25.74
2018-09-29T14:18:22.252Z,25.72
2018-09-29T14:20:48.608Z,25.72
2018-09-29T14:23:14.948Z,25.74
2018-09-29T14:25:41.309Z,25.78
2018-09-29T14:28:07.811Z,25.75
2018-09-29T14:30:34.350Z,25.79
2018-09-29T14:33:00.707Z,25.82
2018-09-29T14:35:27.102Z,25.89
2018-09-29T14:37:53.437Z,25.87
2018-09-29T14:40:19.768Z,25.92
2018-09-29T14:42:46.128Z,25.93
2018-09-29T14:45:12.536Z,25.85
2018-09-29T14:47:39.038Z,25.78
2018-09-29T14:50:05.370Z,25.70
2018-09-29T14:52:31.702Z,25.80
2018-09-29T14:54:58.054Z,25.74
2018-09-29T14:57:24.424Z,25.75
2018-09-29T14:59:50.816Z,25.66
2018-09-29T15:02:17.157Z,25.89
2018-09-29T15:04:43.497Z,25.70
2018-09-29T15:07:09.868Z,25.71
2018-09-29T15:09:36.200Z,25.80
2018-09-29T15:12:02.637Z,25.74
2018-09-29T15:14:28.993Z,25.72
2018-09-29T15:16:55.341Z,25.68
2018-09-29T15:19:21.680Z,25.73
2018-09-29T15:21:48.038Z,25.65
2018-09-29T15:24:14.382Z,25.62
2018-09-29T15:26:40.734Z,25.68
2018-09-29T15:29:07.121Z,25.63
2018-09-29T15:31:33.739Z,25.78
2018-09-29T15:34:00.080Z,25.74
2018-09-29T15:36:26.416Z,25.75
2018-09-29T15:38:52.748Z,25.79
2018-09-29T15:41:19.094Z,25.71
2018-09-29T15:43:45.452Z,25.70
2018-09-29T15:46:11.781Z,25.79
2018-09-29T15:48:38.181Z,25.74
2018-09-29T15:51:04.518Z,25.76
2018-09-29T15:53:30.867Z,25.73
2018-09-29T15:55:57.209Z,25.74
2018-09-29T15:58:23.540Z,25.84
2018-09-29T16:00:49.879Z,25.77
2018-09-29T16:03:16.216Z,25.84
2018-09-29T16:05:42.673Z,25.71
2018-09-29T16:08:09.100Z,25.76
2018-09-29T16:10:35.496Z,25.85
2018-09-29T16:13:01.904Z,25.82
2018-09-29T16:15:28.427Z,25.93
2018-09-29T16:17:54.761Z,25.94
2018-09-29T16:20:21.169Z,25.96
2018-09-29T16:22:47.531Z,26.04
2018-09-29T16:25:13.955Z,26.10
2018-09-29T16:27:40.336Z,26.13
2018-09-29T16:30:06.732Z,26.09
2018-09-29T16:32:33.415Z,26.11
2018-09-29T16:34:59.959Z,26.03
2018-09-29T16:37:26.496Z,26.08
2018-09-29T16:39:52.840Z,26.12
2018-09-29T16:42:19.201Z,26.08
2018-09-29T16:44:45.560Z,26.12
2018-09-29T16:47:11.916Z,26.20
2018-09-29T16:49:38.293Z,26.28
2018-09-29T16:52:04.648Z,26.48
2018-09-29T16:54:31.056Z,26.62
2018-09-29T16:56:57.444Z,26.65
2018-09-29T16:59:23.828Z,26.82
2018-09-29T17:01:50.291Z,26.91
2018-09-29T17:04:16.665Z,27.03
2018-09-29T17:06:43.055Z,27.26
2018-09-29T17:09:09.443Z,27.37
2018-09-29T17:11:35.854Z,27.62
2018-09-29T17:14:02.268Z,27.70
2018-09-29T17:16:28.590Z,27.66
2018-09-29T17:18:55.001Z,27.86
2018-09-29T17:21:21.355Z,28.05
2018-09-29T17:23:47.756Z,28.15
2018-09-29T17:26:14.145Z,28.13
2018-09-29T17:28:40.481Z,28.44
2018-09-29T17:31:06.862Z,28.38
2018-09-29T17:33:33.196Z,28.53
2018-09-29T17:35:59.571Z,28.75
2018-09-29T17:38:25.908Z,28.87
2018-09-29T17:40:52.409Z,28.84
2018-09-29T17:43:18.817Z,29.01
2018-09-29T17:45:45.160Z,29.28
2018-09-29T17:48:11.607Z,29.11
2018-09-29T17:50:38.041Z,29.41
2018-09-29T17:53:04.441Z,29.39
2018-09-29T17:55:30.826Z,29.55
2018-09-29T17:57:57.235Z,29.36
2018-09-29T18:00:23.639Z,29.59
2018-09-29T18:02:50.025Z,29.68
2018-09-29T18:05:16.357Z,29.77
2018-09-29T18:07:42.759Z,29.74
2018-09-29T18:10:09.153Z,29.85
2018-09-29T18:12:35.578Z,29.95
2018-09-29T18:15:01.918Z,30.14
2018-09-29T18:17:28.254Z,30.02
2018-09-29T18:19:54.648Z,30.10
2018-09-29T18:22:21.003Z,30.22
2018-09-29T18:24:47.427Z,30.38
2018-09-29T18:27:13.787Z,30.44
2018-09-29T18:29:40.135Z,30.61
2018-09-29T18:32:06.509Z,30.46
2018-09-29T18:34:32.876Z,30.51
2018-09-29T18:36:59.308Z,30.57
2018-09-29T18:39:25.785Z,30.74
2018-09-29T18:41:52.684Z,30.89
2018-09-29T18:44:19.025Z,30.82
2018-09-29T18:46:45.412Z,30.96
2018-09-29T18:49:12.563Z,31.02
2018-09-29T18:51:39.017Z,31.22
2018-09-29T18:54:05.402Z,31.24
2018-09-29T18:56:31.758Z,31.17
2018-09-29T18:58:58.135Z,31.23
2018-09-29T19:01:24.588Z,31.27
2018-09-29T19:03:50.958Z,31.34
2018-09-29T19:06:17.395Z,31.62
2018-09-29T19:08:43.807Z,31.55
2018-09-29T19:11:10.184Z,31.58
2018-09-29T19:13:36.549Z,31.62
2018-09-29T19:16:03.087Z,31.59
2018-09-29T19:18:29.519Z,31.73
2018-09-29T19:20:55.899Z,31.95
2018-09-29T19:23:22.359Z,31.89
2018-09-29T19:25:48.745Z,31.98
2018-09-29T19:28:15.151Z,32.08
2018-09-29T19:30:41.523Z,32.10
2018-09-29T19:33:07.906Z,32.15
2018-09-29T19:35:34.311Z,32.19
2018-09-29T19:38:00.653Z,32.19
2018-09-29T19:40:26.999Z,32.36
2018-09-29T19:42:53.403Z,32.34
2018-09-29T19:45:19.792Z,32.46
2018-09-29T19:47:46.167Z,32.50
2018-09-29T19:50:12.497Z,32.58
2018-09-29T19:52:38.961Z,32.57
2018-09-29T19:55:05.319Z,32.66
2018-09-29T19:57:31.692Z,32.67
2018-09-29T19:59:58.020Z,32.73
2018-09-29T20:02:24.405Z,32.79
2018-09-29T20:04:50.756Z,32.88
2018-09-29T20:07:17.113Z,32.87
2018-09-29T20:09:43.447Z,33.00
2018-09-29T20:12:09.820Z,33.09
2018-09-29T20:14:36.206Z,33.04
2018-09-29T20:17:03.332Z,33.09
2018-09-29T20:19:29.697Z,33.15
2018-09-29T20:21:56.060Z,33.27
2018-09-29T20:24:22.526Z,33.34
2018-09-29T20:26:48.853Z,33.49
2018-09-29T20:29:15.190Z,33.38
2018-09-29T20:31:41.588Z,33.51
2018-09-29T20:34:07.927Z,33.46
2018-09-29T20:36:34.307Z,33.56
2018-09-29T20:39:00.690Z,33.69
2018-09-29T20:41:27.200Z,33.62
2018-09-29T20:43:53.593Z,33.66
2018-09-29T20:46:19.966Z,33.72
2018-09-29T20:48:46.331Z,33.79
2018-09-29T20:51:12.656Z,33.80
2018-09-29T20:53:39.064Z,33.90
2018-09-29T20:56:05.417Z,33.95
2018-09-29T20:58:31.796Z,34.02
2018-09-29T21:00:58.167Z,33.99
2018-09-29T21:03:24.539Z,34.07
2018-09-29T21:05:50.878Z,34.18
2018-09-29T21:08:17.217Z,34.08
2018-09-29T21:10:43.573Z,34.21
2018-09-29T21:13:10.117Z,34.18
2018-09-29T21:15:36.372Z,34.39
2018-09-29T21:18:02.774Z,34.29
2018-09-29T21:20:29.207Z,34.31
2018-09-29T21:22:55.547Z,34.41
2018-09-29T21:25:21.940Z,34.35
2018-09-29T21:27:48.303Z,34.49
2018-09-29T21:30:14.810Z,34.52
2018-09-29T21:32:41.134Z,34.57
2018-09-29T21:35:07.574Z,34.62
2018-09-29T21:37:33.956Z,34.68
2018-09-29T21:40:00.358Z,34.68
2018-09-29T21:42:26.734Z,34.69
2018-09-29T21:44:53.142Z,34.79
2018-09-29T21:47:19.519Z,34.82
2018-09-29T21:49:45.933Z,34.80
2018-09-29T21:52:12.374Z,34.89
2018-09-29T21:54:38.832Z,34.94
2018-09-29T21:57:05.220Z,35.03
2018-09-29T21:59:31.581Z,35.01
2018-09-29T22:01:57.914Z,35.18
2018-09-29T22:04:24.307Z,35.12
2018-09-29T22:06:50.701Z,35.20
2018-09-29T22:09:17.034Z,35.23
2018-09-29T22:11:43.366Z,35.26
2018-09-29T22:14:09.811Z,35.38
2018-09-29T22:16:36.235Z,35.32
2018-09-29T22:19:02.673Z,35.39
2018-09-29T22:21:29.018Z,35.46
2018-09-29T22:23:55.357Z,35.51
2018-09-29T22:26:21.749Z,35.61
2018-09-29T22:28:48.202Z,35.62
2018-09-29T22:31:14.738Z,35.65
2018-09-29T22:33:41.060Z,35.68
2018-09-29T22:36:07.382Z,35.75
2018-09-29T22:38:33.759Z,35.78
2018-09-29T22:41:00.151Z,35.77
2018-09-29T22:43:26.547Z,35.82
2018-09-29T22:45:52.912Z,35.80
2018-09-29T22:48:19.322Z,35.93
2018-09-29T22:50:45.757Z,36.07
2018-09-29T22:53:12.109Z,36.07
2018-09-29T22:55:38.494Z,36.13
2018-09-29T22:58:04.840Z,36.12
2018-09-29T23:00:31.200Z,36.13
2018-09-29T23:02:57.560Z,36.19
2018-09-29T23:05:23.960Z,36.25
2018-09-29T23:07:50.335Z,36.31
2018-09-29T23:10:16.780Z,36.39
2018-09-29T23:12:43.164Z,36.40
2018-09-29T23:15:09.557Z,36.47
2018-09-29T23:17:35.925Z,36.40
2018-09-29T23:20:02.292Z,36.49
2018-09-29T23:22:28.701Z,36.57
2018-09-29T23:24:55.121Z,36.62
2018-09-29T23:27:21.456Z,36.67
2018-09-29T23:29:47.844Z,36.70
2018-09-29T23:32:14.206Z,36.68
2018-09-29T23:34:40.556Z,36.86
2018-09-29T23:37:06.979Z,36.83
2018-09-29T23:39:33.332Z,36.88
2018-09-29T23:41:59.726Z,36.90
2018-09-29T23:44:26.088Z,36.95
2018-09-29T23:46:52.473Z,36.92
2018-09-29T23:49:18.840Z,37.05
2018-09-29T23:51:45.170Z,37.00
2018-09-29T23:54:11.553Z,37.08
2018-09-29T23:56:37.893Z,37.11
2018-09-29T23:59:04.229Z,37.13
